Time;durP1;ratioP1;P1;durP2;ratioP2;P2;SDS_P1;SDS_P2;PMS_P1;PMS_P2;Temp;Humidity;BMP_temperature;BMP_pressure;BME280_temperature;BME280_humidity;BME280_pressure;Samples;Min_cycle;Max_cycle;Signal;HPM_P1;HPM_P2
2023/02/11 01:42:45;;;;;;;68.85;38.72;;;64.90;2201.60;;;;;;4962296;29;20035;-87
2023/02/11 03:00:28;;;;;;;69.55;36.17;;;90.00;2176.00;;;;;;5012201;28;20109;-87
2023/02/11 03:03:35;;;;;;;69.03;32.92;;;90.10;2176.00;;;;;;5015593;23;20119;-86
2023/02/11 03:29:23;;;;;;;;;;;89.90;2176.00;;;;;;4996723;28;20034;-87
2023/02/11 03:36:16;;;;;;;94.95;41.28;;;89.70;2176.00;;;;;;4959203;28;20046;-86
2023/02/11 03:49:51;;;;;;;80.40;41.42;;;90.00;2176.00;;;;;;5015952;23;20111;-86
2023/02/11 04:38:12;;;;;;;93.73;51.47;;;90.00;2176.00;;;;;;4985847;23;20070;31
2023/02/11 05:26:32;;;;;;;101.85;52.67;;;115.20;2176.00;;;;;;4943783;29;20015;-86
2023/02/11 05:37:07;;;;;;;188.85;82.70;;;115.50;2176.00;;;;;;4847924;29;20074;-86
2023/02/11 05:46:50;;;;;;;258.67;101.93;;;115.70;2176.00;;;;;;4867864;29;20037;-85
2023/02/11 06:08:45;;;;;;;166.15;80.72;;;115.50;2176.00;;;;;;4963270;29;20050;-85
2023/02/11 06:15:47;;;;;;;206.65;102.82;;;90.50;2176.00;;;;;;4963152;29;20120;-85
2023/02/11 06:22:54;;;;;;;194.15;100.43;;;90.30;2176.00;;;;;;4946097;29;20027;-86
2023/02/11 06:33:27;;;;;;;194.70;108.38;;;115.40;2176.00;;;;;;5000595;28;20033;-85
2023/02/11 06:36:31;;;;;;;175.98;96.70;;;115.30;2176.00;;;;;;4879852;29;20026;-85
2023/02/11 06:45:54;;;;;;;294.77;140.50;;;115.40;2176.00;;;;;;4754070;30;20076;-85
2023/02/11 07:32:43;;;;;;;89.53;48.85;;;64.80;2201.60;;;;;;4981117;28;20049;-85
2023/02/11 07:45:17;;;;;;;113.53;63.55;;;64.30;2201.60;;;;;;5656715;23;20110;31
2023/02/11 07:48:35;;;;;;;121.75;66.50;;;64.30;2201.60;;;;;;4943012;29;20048;-87
2023/02/11 07:51:29;;;;;;;108.20;58.70;;;64.20;2201.60;;;;;;4982338;23;20055;-87
2023/02/11 07:54:30;;;;;;;102.88;56.83;;;64.20;2201.60;;;;;;4979623;28;20043;-87
2023/02/11 08:00:29;;;;;;;125.25;62.70;;;64.20;2201.60;;;;;;5111101;23;20056;-86
2023/02/11 08:10:42;;;;;;;108.28;63.20;;;39.10;2201.60;;;;;;4956853;28;20032;-86
2023/02/11 08:30:11;;;;;;;89.43;49.42;;;38.80;2201.60;;;;;;4956960;29;20047;-81
2023/02/11 08:32:42;;;;;;;97.10;51.90;;;13.50;2201.60;;;;;;4957925;28;20048;-80
2023/02/11 08:35:20;;;;;;;84.22;45.97;;;38.60;2201.60;;;;;;4962884;28;20016;-82
2023/02/11 08:45:50;;;;;;;81.35;46.58;;;38.40;2201.60;;;;;;4996941;28;20050;-84
2023/02/11 08:48:27;;;;;;;77.38;44.65;;;13.70;2201.60;;;;;;4981759;28;20061;-84
2023/02/11 08:51:26;;;;;;;98.93;55.47;;;13.60;2201.60;;;;;;4981385;28;20031;-85
2023/02/11 08:53:59;;;;;;;92.20;54.63;;;13.50;2201.60;;;;;;4997571;28;20043;-81
2023/02/11 08:56:36;;;;;;;76.10;47.47;;;13.30;2201.60;;;;;;4996021;28;20018;-80
2023/02/11 09:03:00;;;;;;;77.55;48.95;;;13.20;2201.60;;;;;;5322219;23;20035;-86
2023/02/11 09:09:46;;;;;;;68.70;38.80;;;13.00;2201.60;;;;;;5001206;28;20038;-82
2023/02/11 09:12:33;;;;;;;67.45;38.85;;;0.00;2201.60;;;;;;4996532;28;20038;-80
2023/02/11 09:15:58;;;;;;;71.20;39.97;;;0.00;2201.60;;;;;;4978981;28;20045;-85
2023/02/11 09:18:36;;;;;;;67.43;39.55;;;0.10;2201.60;;;;;;4982553;28;20062;-81
2023/02/11 09:21:46;;;;;;;218.88;101.15;;;0.10;2201.60;;;;;;4999453;28;20018;-83
2023/02/11 09:24:42;;;;;;;91.50;50.83;;;0.30;2201.60;;;;;;4997213;28;20046;-84
2023/02/11 09:27:11;;;;;;;83.22;46.88;;;0.50;2201.60;;;;;;4995297;28;20038;-80
2023/02/11 09:29:37;;;;;;;63.45;38.70;;;0.50;2201.60;;;;;;4988293;28;20051;-81
2023/02/11 09:32:15;;;;;;;67.88;37.30;;;0.60;2201.60;;;;;;4993062;28;20027;-82
2023/02/11 09:43:20;;;;;;;64.25;40.00;;;25.60;2201.60;;;;;;5122411;23;20089;-80
2023/02/11 09:46:41;;;;;;;61.88;34.92;;;25.70;2201.60;;;;;;5020504;23;20049;-85
2023/02/11 09:53:30;;;;;;;61.85;37.88;;;25.80;2201.60;;;;;;5011868;23;20057;-85
2023/02/11 10:09:09;;;;;;;68.50;38.17;;;51.30;2227.20;;;;;;5021026;28;20029;-85
2023/02/11 10:26:58;;;;;;;105.60;55.45;;;51.90;2227.20;;;;;;4961605;29;20088;-84
2023/02/11 10:53:50;;;;;;;53.45;31.67;;;77.20;2227.20;;;;;;4961868;29;20080;-83
2023/02/11 10:57:00;;;;;;;45.75;30.42;;;77.20;2227.20;;;;;;4960911;29;20043;-85
2023/02/11 11:00:22;;;;;;;47.35;29.40;;;77.40;2227.20;;;;;;5036461;23;20052;-84
2023/02/11 11:03:54;;;;;;;52.55;31.42;;;77.50;2227.20;;;;;;4960116;29;20036;-86
2023/02/11 11:15:48;;;;;;;52.10;29.75;;;102.70;2227.20;;;;;;5084860;23;20037;-87
2023/02/11 11:19:23;;;;;;;44.05;26.80;;;102.80;2227.20;;;;;;4959120;28;20059;-85
2023/02/11 11:31:12;;;;;;;38.03;25.00;;;103.20;2227.20;;;;;;5201044;23;20084;-86
2023/02/11 11:41:39;;;;;;;37.35;23.83;;;128.20;2252.80;;;;;;5024772;23;20041;-85
2023/02/11 11:50:33;;;;;;;48.60;29.50;;;153.60;2252.80;;;;;;4997413;28;20058;-85
2023/02/11 11:53:39;;;;;;;50.60;28.98;;;154.30;2227.20;;;;;;4934953;28;20139;-85
2023/02/11 11:57:12;;;;;;;46.65;28.77;;;179.40;2201.60;;;;;;4902987;29;20044;-85
2023/02/11 12:00:22;;;;;;;37.03;28.13;;;179.60;2150.40;;;;;;4855178;29;20041;-85
2023/02/11 12:07:01;;;;;;;51.35;34.42;;;180.10;2150.40;;;;;;5016788;28;20062;-86
2023/02/11 12:10:08;;;;;;;42.38;28.48;;;205.10;2099.20;;;;;;5019076;28;20045;-86
2023/02/11 12:13:27;;;;;;;40.90;25.30;;;205.30;2099.20;;;;;;5002558;28;20097;-85
2023/02/11 12:16:34;;;;;;;36.05;24.35;;;205.20;2048.00;;;;;;5016440;28;20069;-84
2023/02/11 12:19:49;;;;;;;35.90;24.95;;;205.50;2048.00;;;;;;5018454;28;20035;-85
2023/02/11 12:36:41;;;;;;;105.28;44.95;;;230.40;1945.60;;;;;;5019028;28;20038;-84
2023/02/11 12:40:11;;;;;;;67.53;39.33;;;230.70;1971.20;;;;;;4943797;29;20036;-83
2023/02/11 12:43:35;;;;;;;73.22;46.90;;;231.10;1920.00;;;;;;4910444;29;20017;-84
2023/02/11 12:47:01;;;;;;;38.58;26.98;;;231.10;1920.00;;;;;;4922971;29;20028;-84
2023/02/11 12:50:11;;;;;;;38.13;25.42;;;230.80;1868.80;;;;;;4887242;29;20024;-84
2023/02/11 12:53:14;;;;;;;39.88;27.50;;;231.00;1945.60;;;;;;4886999;29;20045;-84
2023/02/11 12:56:16;;;;;;;31.63;22.40;;;230.60;1920.00;;;;;;4856110;29;20042;-82
2023/02/11 12:59:45;;;;;;;35.47;23.48;;;230.60;1920.00;;;;;;4812812;30;20115;-83
2023/02/11 13:02:51;;;;;;;37.97;25.40;;;231.10;1945.60;;;;;;4886754;29;20058;-82
2023/02/11 13:05:56;;;;;;;33.38;22.38;;;231.00;1868.80;;;;;;4855064;29;20041;-82
2023/02/11 13:09:15;;;;;;;42.50;27.58;;;230.80;1894.40;;;;;;4870635;29;20044;-83
2023/02/11 13:22:58;;;;;;;52.15;33.88;;;256.30;1868.80;;;;;;4922417;29;20026;-83
2023/02/11 13:26:02;;;;;;;40.28;26.13;;;256.40;1868.80;;;;;;4921972;29;20055;-82
2023/02/11 13:29:21;;;;;;;38.22;26.42;;;231.00;1868.80;;;;;;4931061;29;20020;-83
2023/02/11 13:32:38;;;;;;;36.17;25.10;;;231.30;1894.40;;;;;;4926657;29;20107;-84
2023/02/11 13:35:28;;;;;;;31.25;22.17;;;231.00;1894.40;;;;;;4919185;29;20028;-83
2023/02/11 13:38:41;;;;;;;43.05;27.20;;;230.90;1868.80;;;;;;4926532;29;20029;-83
2023/02/11 13:42:00;;;;;;;40.90;23.73;;;230.70;1894.40;;;;;;4860762;29;20029;-83
2023/02/11 13:48:52;;;;;;;50.50;30.80;;;230.90;1920.00;;;;;;4812449;29;20049;-83
2023/02/11 13:51:52;;;;;;;48.90;31.00;;;231.20;1920.00;;;;;;4811756;29;20048;-84
2023/02/11 13:54:50;;;;;;;33.03;22.60;;;;;;;;;;4814236;29;20073;-83
2023/02/11 13:57:55;;;;;;;45.47;26.98;;;;;;;;;;4824011;29;20034;-83
2023/02/11 14:00:54;;;;;;;39.78;27.75;;;;;;;;;;4880397;29;20031;-82
2023/02/11 14:09:36;;;;;;;39.92;26.85;;;;;;;;;;4920933;29;20023;-83
2023/02/11 14:12:22;;;;;;;51.25;34.28;;;;;;;;;;4918593;29;20050;-81
2023/02/11 14:15:23;;;;;;;50.75;34.58;;;;;;;;;;4965004;28;20030;-82
2023/02/11 14:17:55;;;;;;;43.35;27.98;;;;;;;;;;4981745;28;20019;-82
2023/02/11 14:20:33;;;;;;;95.30;60.95;;;;;;;;;;4959406;28;20102;-81
2023/02/11 14:23:00;;;;;;;102.28;63.95;;;;;;;;;;4991627;28;20039;-81
2023/02/11 14:25:29;;;;;;;73.97;47.35;;;;;;;;;;4994801;28;20085;-81
2023/02/11 14:28:14;;;;;;;97.25;60.53;;;;;;;;;;4962308;28;20030;-81
2023/02/11 14:31:00;;;;;;;79.60;47.20;;;;;;;;;;4992783;28;20019;-81
2023/02/11 14:33:56;;;;;;;64.50;39.80;;;205.20;1945.60;;;;;;4973443;28;20070;-83
2023/02/11 14:36:35;;;;;;;67.45;39.45;;;;;;;;;;4980218;28;20070;-82
2023/02/11 14:39:15;;;;;;;58.50;38.08;;;;;;;;;;4996566;28;20034;-80
2023/02/11 14:41:43;;;;;;;60.97;38.22;;;;;;;;;;4992640;28;20038;-81
2023/02/11 14:44:25;;;;;;;57.28;35.47;;;;;;;;;;4993901;28;20103;-81
2023/02/11 14:47:00;;;;;;;54.33;33.67;;;;;;;;;;4995209;28;20093;-81
2023/02/11 14:49:36;;;;;;;69.95;44.45;;;179.40;2073.60;;;;;;4990059;28;20034;-80
2023/02/11 14:52:21;;;;;;;81.28;44.63;;;179.30;2073.60;;;;;;4974081;28;20033;-81
2023/02/11 14:54:52;;;;;;;68.68;40.63;;;;;;;;;;4993959;28;20046;-80
2023/02/11 14:57:23;;;;;;;65.40;41.33;;;;;;;;;;4999301;28;20030;-83
2023/02/11 15:00:08;;;;;;;56.45;38.63;;;;;;;;;;4998098;28;20090;-81
2023/02/11 15:02:36;;;;;;;55.95;33.22;;;;;;;;;;5000753;28;20027;-81
2023/02/11 15:05:26;;;;;;;63.17;41.58;;;;;;;;;;4996840;28;20023;-81
2023/02/11 15:08:00;;;;;;;79.78;47.95;;;;;;;;;;5014799;28;20060;-81
2023/02/11 15:10:29;;;;;;;71.85;44.63;;;;;;;;;;4983423;28;20030;-81
2023/02/11 15:12:57;;;;;;;64.53;40.08;;;154.10;2150.40;;;;;;4998125;28;20042;-82
2023/02/11 15:15:23;;;;;;;80.10;51.28;;;;;;;;;;4999618;28;20053;-82
2023/02/11 15:17:56;;;;;;;82.95;54.15;;;;;;;;;;5015197;28;20045;-81
2023/02/11 15:24:00;;;;;;;107.38;66.70;;;153.80;2201.60;;;;;;4995552;28;20083;-83
2023/02/11 15:26:26;;;;;;;84.30;55.60;;;153.60;2176.00;;;;;;5000865;28;20038;-82
2023/02/11 15:28:52;;;;;;;91.28;60.00;;;128.90;2201.60;;;;;;4990854;28;20022;-80
2023/02/11 15:31:30;;;;;;;131.88;80.70;;;128.90;2201.60;;;;;;4991771;28;20018;-83
2023/02/11 15:34:13;;;;;;;141.70;82.30;;;128.90;2227.20;;;;;;4998587;28;20042;-82
2023/02/11 15:36:44;;;;;;;123.80;79.95;;;153.60;2227.20;;;;;;4982723;28;20458;-81
2023/02/11 15:39:57;;;;;;;107.30;68.15;;;128.70;2227.20;;;;;;4969533;28;20049;-81
2023/02/11 15:42:34;;;;;;;104.93;61.90;;;128.70;2227.20;;;;;;4943338;28;20089;-83
2023/02/11 15:45:16;;;;;;;104.25;67.85;;;154.00;2252.80;;;;;;4998540;28;20010;-80
2023/02/11 15:48:33;;;;;;;111.80;70.63;;;128.70;2252.80;;;;;;4998302;28;20030;-84
2023/02/11 15:51:28;;;;;;;109.80;69.63;;;128.40;2252.80;;;;;;4923101;29;20016;-81
2023/02/11 15:57:25;;;;;;;99.43;64.30;;;128.20;2252.80;;;;;;4919031;29;20058;-82
2023/02/11 15:59:57;;;;;;;88.25;57.63;;;128.10;2252.80;;;;;;4918298;29;20029;-82
2023/02/11 16:02:37;;;;;;;82.28;56.50;;;103.30;2227.20;;;;;;4919282;29;20667;-82
2023/02/11 16:05:48;;;;;;;97.32;64.53;;;102.90;2227.20;;;;;;4915003;29;20028;-80
2023/02/11 16:08:36;;;;;;;92.45;59.20;;;103.10;2227.20;;;;;;4950036;28;20066;-84
2023/02/11 16:11:39;;;;;;;358.58;82.95;;;103.10;2227.20;;;;;;5011907;28;20103;-80
2023/02/11 16:15:05;;;;;;;136.48;75.00;;;103.00;2227.20;;;;;;4965986;28;20042;-82
2023/02/11 16:17:55;;;;;;;144.85;89.03;;;103.00;2227.20;;;;;;4998800;28;20044;-81
2023/02/11 16:21:14;;;;;;;130.70;81.30;;;102.80;2227.20;;;;;;4930799;29;20051;-81
2023/02/11 16:24:38;;;;;;;156.00;91.65;;;102.80;2227.20;;;;;;4968615;29;20028;-82
2023/02/11 16:27:21;;;;;;;219.90;128.25;;;102.80;2227.20;;;;;;4957140;29;20455;-81
2023/02/11 16:29:50;;;;;;;181.20;107.45;;;102.70;2227.20;;;;;;4970357;28;20039;-79
2023/02/11 16:32:28;;;;;;;179.18;109.13;;;102.60;2227.20;;;;;;4952782;29;20099;-81
2023/02/11 16:35:17;;;;;;;197.13;117.65;;;102.40;2227.20;;;;;;4956455;29;20488;-80
2023/02/11 16:42:02;;;;;;;282.85;168.52;;;77.70;2227.20;;;;;;4979023;28;20027;-85
2023/02/11 16:45:34;;;;;;;214.30;127.95;;;77.70;2227.20;;;;;;4977895;28;20403;-83
2023/02/11 16:48:30;;;;;;;209.85;118.32;;;77.50;2227.20;;;;;;4978420;28;20019;-84
2023/02/11 16:51:51;;;;;;;241.50;141.07;;;77.40;2227.20;;;;;;4961285;28;20028;-83
2023/02/11 16:55:05;;;;;;;250.20;135.18;;;77.40;2227.20;;;;;;4946551;29;20027;-83
2023/02/11 16:57:52;;;;;;;284.13;151.13;;;77.20;2227.20;;;;;;4977822;28;20067;-82
2023/02/11 17:00:20;;;;;;;278.95;151.88;;;77.20;2227.20;;;;;;4943854;29;20055;-80
2023/02/11 17:03:28;;;;;;;271.92;152.00;;;77.40;2227.20;;;;;;4961324;29;20055;-83
2023/02/11 17:06:34;;;;;;;266.98;150.32;;;77.10;2227.20;;;;;;4974126;28;20027;-84
2023/02/11 17:10:04;;;;;;;263.25;147.75;;;77.00;2227.20;;;;;;4984630;23;20091;-83
2023/02/11 17:12:42;;;;;;;229.77;127.18;;;77.00;2227.20;;;;;;4951486;28;20043;-81
2023/02/11 17:15:13;;;;;;;175.68;105.80;;;51.70;2227.20;;;;;;4961308;29;20070;-80
2023/02/11 17:17:39;;;;;;;194.57;112.63;;;76.90;2227.20;;;;;;4962129;28;20043;-81
2023/02/11 17:20:32;;;;;;;167.02;95.85;;;76.80;2227.20;;;;;;4963451;28;20034;-83
2023/02/11 17:23:49;;;;;;;133.98;81.75;;;76.80;2227.20;;;;;;4977437;28;20055;-82
2023/02/11 17:26:45;;;;;;;139.93;84.32;;;76.80;2227.20;;;;;;4962349;29;20035;-82
2023/02/11 17:29:52;;;;;;;199.30;116.90;;;76.80;2227.20;;;;;;4925509;29;20036;-84
2023/02/11 17:32:49;;;;;;;178.95;102.22;;;76.80;2227.20;;;;;;5014459;23;20066;-82
2023/02/11 17:36:11;;;;;;;133.43;71.50;;;52.10;2227.20;;;;;;4994969;28;20108;-85
2023/02/11 17:39:31;;;;;;;162.90;88.82;;;51.90;2227.20;;;;;;4999021;28;20019;-88
2023/02/11 17:45:45;;;;;;;200.73;113.50;;;51.80;2227.20;;;;;;4905193;29;20021;-83
2023/02/11 17:49:00;;;;;;;;;;;51.80;2227.20;;;;;;4904660;29;20056;-86
2023/02/11 17:59:07;;;;;;;194.85;120.53;;;51.90;2227.20;;;;;;4900183;29;20073;-84
2023/02/11 18:06:19;;;;;;;180.93;106.15;;;51.70;2227.20;;;;;;4905156;29;20019;-84
2023/02/11 18:17:10;;;;;;;204.38;121.80;;;51.40;2227.20;;;;;;5019449;28;20034;-85
2023/02/11 18:20:04;;;;;;;174.73;105.63;;;51.40;2227.20;;;;;;4959678;28;20026;-87
2023/02/11 18:26:39;;;;;;;196.77;119.40;;;51.30;2227.20;;;;;;4942813;29;20064;-87
2023/02/11 18:29:36;;;;;;;298.42;164.10;;;51.30;2227.20;;;;;;4997280;28;20045;-85
2023/02/11 18:32:44;;;;;;;245.90;152.13;;;51.40;2227.20;;;;;;5018611;28;20060;-85
2023/02/11 18:38:59;;;;;;;302.33;171.73;;;51.30;2227.20;;;;;;5020415;28;20038;-85
2023/02/11 18:41:58;;;;;;;328.77;183.48;;;51.50;2227.20;;;;;;4987902;28;20030;-85
2023/02/11 18:45:18;;;;;;;327.30;192.82;;;51.20;2227.20;;;;;;4987335;28;20034;-85
2023/02/11 18:51:13;;;;;;;436.73;252.82;;;51.20;2227.20;;;;;;5017644;28;20081;-86
2023/02/11 18:54:51;;;;;;;434.83;253.77;;;51.20;2227.20;;;;;;4919470;29;20060;-85
2023/02/11 18:58:20;;;;;;;361.98;205.43;;;51.20;2227.20;;;;;;4975341;28;20073;-85
2023/02/11 19:01:08;;;;;;;391.50;227.38;;;26.40;2201.60;;;;;;5003648;28;20077;-85
2023/02/11 19:07:05;;;;;;;436.23;258.42;;;26.30;2201.60;;;;;;5018238;28;20040;-84
2023/02/11 19:09:51;;;;;;;390.20;231.10;;;26.20;2201.60;;;;;;4979785;28;20027;-78
2023/02/11 19:31:44;;;;;;;196.65;130.00;;;26.00;2201.60;;;;;;4995584;28;20078;-85
2023/02/11 19:34:43;;;;;;;245.27;147.35;;;26.00;2201.60;;;;;;4994856;28;20091;-85
2023/02/11 19:37:56;;;;;;;282.15;163.70;;;25.90;2201.60;;;;;;4971231;28;20133;-85
2023/02/11 19:40:37;;;;;;;427.85;227.30;;;26.00;2201.60;;;;;;4975848;28;20035;-81
2023/02/11 19:47:09;;;;;;;378.50;218.90;;;26.10;2201.60;;;;;;4940582;29;20048;-87
2023/02/11 20:10:03;;;;;;;312.33;186.27;;;25.90;2201.60;;;;;;5019795;23;20065;-86
2023/02/11 20:13:03;;;;;;;374.30;218.45;;;25.90;2201.60;;;;;;5051541;23;20073;-85
2023/02/11 20:16:19;;;;;;;432.85;249.35;;;26.00;2201.60;;;;;;4921029;29;20137;-87
2023/02/11 20:19:48;;;;;;;368.73;222.95;;;26.00;2201.60;;;;;;4922370;29;20205;-86
2023/02/11 20:22:37;;;;;;;285.02;172.68;;;26.00;2201.60;;;;;;4908277;29;20040;-86
2023/02/11 20:25:05;;;;;;;296.15;172.45;;;25.60;2201.60;;;;;;4914770;29;20020;-86
2023/02/11 20:51:19;;;;;;;214.10;122.25;;;0.80;2201.60;;;;;;2809231;23;20049;31
2023/02/11 21:42:35;;;;;;;318.88;174.07;;;0.40;2201.60;;;;;;4979433;28;20023;-84
2023/02/11 21:48:34;;;;;;;420.83;220.80;;;0.40;2201.60;;;;;;4983008;28;20065;-84
2023/02/11 21:55:32;;;;;;;231.75;124.85;;;0.40;2201.60;;;;;;5031736;23;20037;-84
2023/02/11 21:58:16;;;;;;;198.60;114.72;;;0.40;2201.60;;;;;;4964232;28;20094;-84
2023/02/11 22:05:58;;;;;;;470.38;264.90;;;0.40;2201.60;;;;;;4995867;23;20047;-79
2023/02/11 22:09:17;;;;;;;500.75;287.30;;;0.40;2201.60;;;;;;4998990;28;20030;-86
2023/02/11 22:20:10;;;;;;;276.23;152.85;;;0.20;2201.60;;;;;;5195313;23;20085;-85
2023/02/11 23:25:16;;;;;;;146.18;87.70;;;0.80;2201.60;;;;;;3956448;23;20313;-85
2023/02/11 23:28:51;;;;;;;172.25;97.93;;;13.30;2201.60;;;;;;5001951;23;20058;-80
2023/02/11 23:44:05;;;;;;;153.52;85.35;;;13.00;2201.60;;;;;;5060059;23;20046;-85
